createdAt,value
2023-03-31T00:00:42.416Z,3.65
2023-03-31T00:03:09.441Z,6.10
2023-03-31T00:05:36.912Z,4.28
2023-03-31T00:08:04.160Z,3.63
2023-03-31T00:10:33.901Z,3.95
2023-03-31T00:13:01.792Z,5.88
2023-03-31T00:15:29.013Z,4.85
2023-03-31T00:17:57.281Z,4.47
2023-03-31T00:20:23.990Z,5.57
2023-03-31T00:22:50.703Z,4.25
2023-03-31T00:25:17.509Z,5.38
2023-03-31T00:27:46.359Z,6.82
2023-03-31T00:30:14.574Z,7.05
2023-03-31T00:32:41.523Z,4.72
2023-03-31T00:35:09.042Z,6.55
2023-03-31T00:37:35.937Z,6.50
2023-03-31T00:40:04.198Z,3.97
2023-03-31T00:42:30.901Z,4.95
2023-03-31T00:45:28.259Z,4.50
2023-03-31T00:48:02.936Z,4.97
2023-03-31T00:50:34.388Z,5.20
2023-03-31T00:53:05.973Z,5.38
2023-03-31T00:55:36.072Z,4.70
2023-03-31T00:58:04.948Z,9.60
2023-03-31T01:00:33.075Z,4.78
2023-03-31T01:03:05.429Z,4.47
2023-03-31T01:05:36.532Z,3.90
2023-03-31T01:08:05.587Z,7.35
2023-03-31T01:10:34.564Z,8.05
2023-03-31T01:13:01.556Z,5.35
2023-03-31T01:15:28.248Z,7.03
2023-03-31T01:17:56.463Z,5.63
2023-03-31T01:20:36.845Z,4.00
2023-03-31T01:23:33.346Z,4.90
2023-03-31T01:26:25.958Z,7.57
2023-03-31T01:28:58.086Z,5.28
2023-03-31T01:31:47.915Z,6.68
2023-03-31T01:34:57.804Z,8.88
2023-03-31T01:37:57.477Z,6.22
2023-03-31T01:40:52.228Z,6.50
2023-03-31T01:45:56.809Z,5.18
2023-03-31T01:48:34.177Z,8.35
2023-03-31T01:51:06.861Z,6.07
2023-03-31T01:53:42.110Z,4.57
2023-03-31T01:56:15.945Z,11.43
2023-03-31T01:58:50.595Z,5.90
2023-03-31T02:01:21.269Z,7.78
2023-03-31T02:03:53.906Z,5.88
2023-03-31T02:06:25.519Z,4.68
2023-03-31T02:08:55.624Z,5.60
2023-03-31T02:11:25.580Z,6.75
2023-03-31T02:13:54.169Z,6.95
2023-03-31T02:16:24.137Z,4.80
2023-03-31T02:18:54.083Z,5.45
2023-03-31T02:21:22.352Z,5.05
2023-03-31T02:23:51.056Z,6.18
2023-03-31T02:26:23.559Z,8.10
2023-03-31T02:28:51.765Z,5.78
2023-03-31T02:31:27.272Z,4.68
2023-03-31T02:33:54.412Z,5.13
2023-03-31T02:36:21.419Z,7.30
2023-03-31T02:38:52.085Z,7.28
2023-03-31T02:41:18.824Z,7.50
2023-03-31T02:43:45.560Z,5.22
2023-03-31T02:46:13.870Z,6.63
2023-03-31T02:48:43.841Z,7.55
2023-03-31T02:51:43.158Z,4.90
2023-03-31T02:54:41.618Z,5.30
2023-03-31T02:57:27.873Z,4.72
2023-03-31T03:00:06.567Z,3.95
2023-03-31T03:02:42.258Z,4.50
2023-03-31T03:05:28.122Z,7.20
2023-03-31T03:08:04.611Z,5.45
2023-03-31T03:10:39.861Z,5.72
2023-03-31T03:13:15.716Z,4.57
2023-03-31T03:15:47.672Z,4.72
2023-03-31T03:18:15.910Z,5.60
2023-03-31T03:20:42.986Z,6.60
2023-03-31T03:23:09.695Z,8.35
2023-03-31T03:25:36.493Z,9.00
2023-03-31T03:28:03.197Z,5.65
2023-03-31T03:30:30.009Z,10.23
2023-03-31T03:32:56.745Z,9.95
2023-03-31T03:35:25.039Z,9.32
2023-03-31T03:37:51.824Z,5.85
2023-03-31T03:40:18.709Z,3.95
2023-03-31T03:42:45.445Z,4.72
2023-03-31T03:45:12.141Z,5.07
2023-03-31T03:47:38.888Z,10.48
2023-03-31T03:50:06.944Z,8.20
2023-03-31T03:52:35.013Z,7.00
2023-03-31T03:55:01.776Z,7.68
2023-03-31T03:57:28.526Z,4.43
2023-03-31T03:59:55.268Z,7.35
2023-03-31T04:02:22.070Z,10.68
2023-03-31T04:04:48.955Z,5.78
2023-03-31T04:07:15.718Z,10.00
2023-03-31T04:09:43.784Z,7.30
2023-03-31T04:12:10.524Z,12.02
2023-03-31T04:14:37.241Z,6.88
2023-03-31T04:17:03.918Z,6.00
2023-03-31T04:19:30.610Z,7.35
2023-03-31T04:21:57.293Z,5.80
2023-03-31T04:24:24.066Z,6.95
2023-03-31T04:26:52.117Z,8.52
2023-03-31T04:29:18.815Z,8.80
2023-03-31T04:31:45.629Z,5.18
2023-03-31T04:34:14.056Z,5.82
2023-03-31T04:36:40.978Z,8.98
2023-03-31T04:39:07.721Z,6.80
2023-03-31T04:41:34.411Z,7.30
2023-03-31T04:44:02.439Z,8.15
2023-03-31T04:46:29.207Z,8.18
2023-03-31T04:48:55.929Z,6.30
2023-03-31T04:51:22.738Z,6.30
2023-03-31T04:53:49.478Z,6.85
2023-03-31T04:56:16.163Z,5.78
2023-03-31T04:58:42.845Z,7.80
2023-03-31T05:01:10.973Z,7.72
2023-03-31T05:03:37.822Z,9.60
2023-03-31T05:06:05.450Z,11.02
2023-03-31T05:08:32.283Z,10.13
2023-03-31T05:10:59.006Z,9.27
2023-03-31T05:13:25.671Z,12.23
2023-03-31T05:15:52.375Z,7.30
2023-03-31T05:18:20.459Z,6.53
2023-03-31T05:20:47.170Z,8.45
2023-03-31T05:23:14.424Z,11.65
2023-03-31T05:25:41.378Z,7.30
2023-03-31T05:28:08.816Z,8.77
2023-03-31T05:30:35.612Z,9.07
2023-03-31T05:33:02.503Z,12.07
2023-03-31T05:35:30.655Z,7.20
2023-03-31T05:37:57.506Z,8.77
2023-03-31T05:40:24.313Z,7.65
2023-03-31T05:42:51.174Z,12.15
2023-03-31T05:45:18.034Z,8.43
2023-03-31T05:47:45.060Z,8.05
2023-03-31T05:50:14.004Z,6.82
2023-03-31T05:52:42.800Z,8.98
2023-03-31T05:55:10.339Z,6.43
2023-03-31T05:57:37.065Z,9.23
2023-03-31T06:00:04.840Z,11.98
2023-03-31T06:02:33.308Z,5.30
2023-03-31T06:05:00.168Z,7.22
2023-03-31T06:07:26.921Z,11.13
2023-03-31T06:09:55.290Z,8.00
2023-03-31T06:12:22.003Z,5.90
2023-03-31T06:14:48.725Z,8.38
2023-03-31T06:17:15.447Z,13.85
2023-03-31T06:19:42.184Z,8.15
2023-03-31T06:22:08.927Z,9.02
2023-03-31T06:24:35.625Z,8.27
2023-03-31T06:27:03.772Z,7.43
2023-03-31T06:29:30.457Z,10.27
2023-03-31T06:31:57.283Z,7.10
2023-03-31T06:34:23.970Z,8.82
2023-03-31T06:36:50.663Z,6.00
2023-03-31T06:39:17.365Z,8.25
2023-03-31T06:41:44.091Z,6.75
2023-03-31T06:44:12.290Z,8.80
2023-03-31T06:46:39.006Z,11.18
2023-03-31T06:49:05.750Z,7.75
2023-03-31T06:51:32.832Z,8.85
2023-03-31T06:53:59.648Z,7.57
2023-03-31T06:56:26.367Z,7.28
2023-03-31T06:58:53.129Z,6.32
2023-03-31T07:01:21.222Z,8.18
2023-03-31T07:03:47.981Z,8.23
2023-03-31T07:06:14.997Z,8.75
2023-03-31T07:08:41.687Z,8.65
2023-03-31T07:11:08.581Z,7.63
2023-03-31T07:13:35.681Z,8.48
2023-03-31T07:16:02.426Z,9.40
2023-03-31T07:18:31.164Z,9.15
2023-03-31T07:20:59.449Z,13.07
2023-03-31T07:23:26.607Z,7.75
2023-03-31T07:25:53.484Z,8.25
2023-03-31T07:28:20.216Z,8.65
2023-03-31T07:30:46.981Z,9.00
2023-03-31T07:33:13.822Z,9.27
2023-03-31T07:35:42.216Z,14.10
2023-03-31T07:38:09.978Z,8.93
2023-03-31T07:40:36.707Z,11.25
2023-03-31T07:43:04.047Z,10.35
2023-03-31T07:45:30.968Z,11.10
2023-03-31T07:47:57.772Z,10.32
2023-03-31T07:50:25.081Z,11.60
2023-03-31T07:52:53.231Z,12.73
2023-03-31T07:55:20.447Z,13.00
2023-03-31T07:57:47.228Z,13.50
2023-03-31T08:00:15.749Z,17.42
2023-03-31T08:02:43.631Z,12.18
2023-03-31T08:05:11.868Z,11.85
2023-03-31T08:07:40.603Z,19.70
2023-03-31T08:10:11.500Z,12.15
2023-03-31T08:12:38.232Z,13.65
2023-03-31T08:15:06.125Z,14.90
2023-03-31T08:17:32.895Z,9.52
2023-03-31T08:20:03.738Z,10.20
2023-03-31T08:22:33.040Z,9.67
2023-03-31T08:24:59.768Z,11.98
2023-03-31T08:27:27.834Z,10.35
2023-03-31T08:29:54.531Z,10.50
2023-03-31T08:32:22.802Z,11.55
2023-03-31T08:34:49.544Z,10.05
2023-03-31T08:37:16.224Z,10.75
2023-03-31T08:39:42.992Z,8.25
2023-03-31T08:42:16.635Z,9.45
2023-03-31T08:44:51.088Z,8.52
2023-03-31T08:47:21.326Z,10.15
2023-03-31T08:49:51.614Z,7.82
2023-03-31T08:52:23.004Z,12.07
2023-03-31T08:54:53.234Z,6.85
2023-03-31T08:57:24.655Z,7.65
2023-03-31T08:59:52.848Z,6.30
2023-03-31T09:02:29.863Z,10.70
2023-03-31T09:05:19.854Z,6.82
2023-03-31T09:07:55.111Z,8.93
2023-03-31T09:10:34.125Z,4.70
2023-03-31T09:13:10.180Z,5.40
2023-03-31T09:15:43.037Z,6.13
2023-03-31T09:18:17.020Z,5.43
2023-03-31T09:20:48.219Z,7.88
2023-03-31T09:23:26.170Z,4.30
2023-03-31T09:25:53.722Z,5.38
2023-03-31T09:28:31.461Z,5.30
2023-03-31T09:31:08.913Z,3.30
2023-03-31T09:33:41.116Z,5.00
2023-03-31T09:36:15.072Z,3.85
2023-03-31T09:38:43.409Z,3.67
2023-03-31T09:41:11.729Z,4.72
2023-03-31T09:43:40.623Z,3.70
2023-03-31T09:46:17.039Z,4.03
2023-03-31T09:48:52.225Z,2.70
2023-03-31T09:51:23.328Z,4.32
2023-03-31T09:53:56.248Z,2.92
2023-03-31T09:56:43.948Z,5.60
2023-03-31T09:59:14.813Z,2.10
2023-03-31T10:01:43.897Z,4.82
2023-03-31T10:04:16.720Z,2.13
2023-03-31T10:06:43.443Z,4.25
2023-03-31T10:09:11.517Z,4.65
2023-03-31T10:11:39.190Z,2.75
2023-03-31T10:14:13.490Z,2.85
2023-03-31T10:16:48.074Z,2.45
2023-03-31T10:19:21.389Z,2.35
2023-03-31T10:21:55.130Z,1.77
2023-03-31T10:24:21.941Z,3.00
2023-03-31T10:26:52.418Z,3.92
2023-03-31T10:29:23.704Z,5.35
2023-03-31T10:31:52.228Z,2.42
2023-03-31T10:34:19.720Z,7.70
2023-03-31T10:36:48.043Z,2.15
2023-03-31T10:39:16.336Z,2.65
2023-03-31T10:41:43.468Z,2.30
2023-03-31T10:44:31.752Z,3.45
2023-03-31T10:47:05.761Z,2.63
2023-03-31T10:49:38.202Z,2.40
2023-03-31T10:52:16.470Z,3.97
2023-03-31T10:54:58.705Z,1.77
2023-03-31T10:57:34.192Z,3.60
2023-03-31T11:00:16.430Z,2.60
2023-03-31T11:03:02.098Z,4.82
2023-03-31T11:05:35.589Z,1.60
2023-03-31T11:08:20.097Z,5.18
2023-03-31T11:10:59.909Z,1.75
2023-03-31T11:13:33.343Z,1.83
2023-03-31T11:16:07.504Z,1.77
2023-03-31T11:18:50.231Z,1.15
2023-03-31T11:21:24.270Z,2.70
2023-03-31T11:23:58.590Z,3.47
2023-03-31T11:26:39.453Z,1.08
2023-03-31T11:29:20.668Z,1.95
2023-03-31T11:31:53.905Z,0.68
2023-03-31T11:34:36.265Z,1.03
2023-03-31T11:37:19.420Z,1.50
2023-03-31T11:39:57.483Z,2.95
2023-03-31T11:42:27.453Z,1.70
2023-03-31T11:45:00.182Z,1.10
2023-03-31T11:47:30.892Z,1.50
2023-03-31T11:50:03.398Z,1.35
2023-03-31T11:52:33.735Z,6.45
2023-03-31T11:55:05.439Z,1.50
2023-03-31T11:57:36.402Z,0.32
2023-03-31T12:00:09.842Z,3.03
2023-03-31T12:02:44.104Z,4.28
2023-03-31T12:05:14.129Z,2.75
2023-03-31T12:07:46.040Z,3.17
2023-03-31T12:10:18.821Z,4.10
2023-03-31T12:12:51.488Z,2.35
2023-03-31T12:15:23.415Z,1.52
2023-03-31T12:17:57.233Z,3.50
2023-03-31T12:20:31.143Z,2.22
2023-03-31T12:23:00.176Z,1.27
2023-03-31T12:25:36.862Z,1.15
2023-03-31T12:28:04.014Z,1.15
2023-03-31T12:30:32.446Z,1.90
2023-03-31T12:33:03.015Z,1.77
2023-03-31T12:35:43.149Z,2.13
2023-03-31T12:38:29.397Z,3.70
2023-03-31T12:41:06.064Z,1.00
2023-03-31T12:44:01.088Z,3.08
2023-03-31T12:46:56.090Z,0.98
2023-03-31T12:49:37.058Z,1.42
2023-03-31T12:52:08.691Z,3.25
2023-03-31T12:55:00.433Z,7.78
2023-03-31T12:57:27.387Z,4.80
2023-03-31T13:00:28.286Z,2.33
2023-03-31T13:03:32.318Z,0.60
2023-03-31T13:05:59.294Z,1.25
2023-03-31T13:08:58.640Z,1.67
2023-03-31T13:11:37.858Z,0.55
2023-03-31T13:14:07.187Z,2.63
2023-03-31T13:16:35.575Z,2.10
2023-03-31T13:19:02.529Z,2.42
2023-03-31T13:21:29.626Z,2.45
2023-03-31T13:24:01.629Z,3.40
2023-03-31T13:26:39.319Z,1.35
2023-03-31T13:29:39.763Z,2.80
2023-03-31T13:32:20.374Z,0.95
2023-03-31T13:34:52.701Z,2.65
2023-03-31T13:37:32.866Z,1.05
2023-03-31T13:40:18.439Z,4.72
2023-03-31T13:43:28.888Z,0.68
2023-03-31T13:46:11.070Z,3.22
2023-03-31T13:48:47.039Z,0.57
2023-03-31T13:51:25.420Z,1.67
2023-03-31T13:54:17.108Z,1.13
2023-03-31T13:56:58.540Z,0.57
2023-03-31T13:59:48.287Z,0.55
2023-03-31T14:02:32.541Z,0.60
2023-03-31T14:05:24.352Z,1.38
2023-03-31T14:07:55.659Z,1.75
2023-03-31T14:10:25.023Z,0.30
2023-03-31T14:13:04.019Z,0.50
2023-03-31T14:15:30.852Z,2.72
2023-03-31T14:17:58.335Z,1.30
2023-03-31T14:20:35.003Z,0.63
2023-03-31T14:23:23.646Z,1.40
2023-03-31T14:25:59.143Z,3.40
2023-03-31T14:28:55.725Z,0.52
2023-03-31T14:31:26.257Z,0.93
2023-03-31T14:34:18.353Z,1.25
2023-03-31T14:36:52.207Z,0.82
2023-03-31T14:39:22.691Z,1.67
2023-03-31T14:41:52.457Z,0.13
2023-03-31T14:44:20.981Z,0.10
2023-03-31T14:46:47.792Z,0.63
2023-03-31T14:49:20.036Z,0.43
2023-03-31T14:51:46.730Z,0.82
2023-03-31T14:54:18.065Z,0.98
2023-03-31T14:56:47.988Z,2.78
2023-03-31T14:59:19.667Z,0.52
2023-03-31T15:01:49.740Z,0.30
2023-03-31T15:04:20.443Z,1.02
2023-03-31T15:06:51.309Z,2.42
2023-03-31T15:09:21.222Z,0.55
2023-03-31T15:11:52.736Z,0.50
2023-03-31T15:14:20.088Z,2.45
2023-03-31T15:16:50.458Z,3.08
2023-03-31T15:19:21.022Z,2.53
2023-03-31T15:21:54.512Z,0.52
2023-03-31T15:24:21.576Z,3.22
2023-03-31T15:26:56.691Z,0.50
2023-03-31T15:29:26.525Z,1.67
2023-03-31T15:31:58.473Z,1.90
2023-03-31T15:34:29.874Z,1.45
2023-03-31T15:36:57.914Z,4.63
2023-03-31T15:39:26.062Z,1.00
2023-03-31T15:41:53.735Z,0.68
2023-03-31T15:44:37.058Z,1.92
2023-03-31T15:47:15.822Z,1.08
2023-03-31T15:49:54.180Z,3.40
2023-03-31T15:52:26.906Z,3.05
2023-03-31T15:54:53.595Z,2.22
2023-03-31T15:57:20.312Z,0.68
2023-03-31T15:59:55.277Z,1.63
2023-03-31T16:02:27.419Z,1.55
2023-03-31T16:04:57.676Z,3.25
2023-03-31T16:07:26.803Z,0.73
2023-03-31T16:09:59.744Z,0.93
2023-03-31T16:12:29.891Z,0.77
2023-03-31T16:15:02.200Z,0.30
2023-03-31T16:17:33.705Z,0.40
2023-03-31T16:20:03.465Z,0.63
2023-03-31T16:22:35.803Z,2.22
2023-03-31T16:25:02.833Z,6.30
2023-03-31T16:27:29.707Z,0.30
2023-03-31T16:30:10.451Z,1.05
2023-03-31T16:32:38.741Z,0.32
2023-03-31T16:35:06.473Z,0.32
2023-03-31T16:37:33.207Z,0.20
2023-03-31T16:40:00.051Z,0.30
2023-03-31T16:42:26.802Z,0.30
2023-03-31T16:47:44.641Z,1.23
2023-03-31T16:50:12.690Z,1.92
2023-03-31T16:52:39.378Z,1.00
2023-03-31T16:55:06.364Z,0.52
2023-03-31T16:57:33.172Z,0.52
2023-03-31T16:59:59.951Z,1.15
2023-03-31T17:02:26.875Z,0.20
2023-03-31T17:04:59.467Z,3.58
2023-03-31T17:07:33.183Z,0.60
2023-03-31T17:09:59.889Z,2.20
2023-03-31T17:12:26.734Z,2.83
2023-03-31T17:14:53.457Z,1.17
2023-03-31T17:17:20.144Z,0.77
2023-03-31T17:19:46.996Z,0.50
2023-03-31T17:22:15.089Z,0.65
2023-03-31T17:24:41.774Z,0.93
2023-03-31T17:27:08.473Z,0.10
2023-03-31T17:29:35.194Z,0.47
2023-03-31T17:32:01.929Z,0.15
2023-03-31T17:34:28.637Z,0.25
2023-03-31T17:36:55.460Z,0.10
2023-03-31T17:39:23.632Z,1.95
2023-03-31T17:41:50.334Z,1.40
2023-03-31T17:44:17.049Z,0.55
2023-03-31T17:46:43.845Z,0.88
2023-03-31T17:49:10.581Z,0.40
2023-03-31T17:51:37.272Z,0.25
2023-03-31T17:54:04.030Z,0.60
2023-03-31T17:56:32.079Z,0.88
2023-03-31T17:58:58.789Z,0.52
2023-03-31T18:01:25.578Z,1.08
2023-03-31T18:03:54.748Z,0.43
2023-03-31T18:06:21.465Z,3.42
2023-03-31T18:08:48.437Z,0.15
2023-03-31T18:11:15.139Z,0.20
2023-03-31T18:13:43.301Z,0.82
2023-03-31T18:16:10.557Z,0.30
2023-03-31T18:18:37.990Z,0.25
2023-03-31T18:21:06.848Z,2.17
2023-03-31T18:23:34.032Z,0.32
2023-03-31T18:26:01.366Z,0.45
2023-03-31T18:28:28.408Z,0.10
2023-03-31T18:30:56.485Z,2.28
2023-03-31T18:33:23.319Z,1.58
2023-03-31T18:35:50.284Z,0.28
2023-03-31T18:38:17.078Z,0.20
2023-03-31T18:40:48.374Z,1.35
2023-03-31T18:43:15.073Z,0.70
2023-03-31T18:45:41.777Z,1.95
2023-03-31T18:48:09.909Z,0.30
2023-03-31T18:50:36.599Z,0.75
2023-03-31T18:53:03.340Z,1.90
2023-03-31T18:55:30.285Z,1.27
2023-03-31T18:57:57.307Z,0.85
2023-03-31T19:00:24.066Z,0.30
2023-03-31T19:02:51.177Z,1.50
2023-03-31T19:05:19.445Z,0.20
2023-03-31T19:07:46.232Z,1.13
2023-03-31T19:10:12.966Z,1.30
2023-03-31T19:12:39.721Z,0.93
2023-03-31T19:15:07.535Z,0.20
2023-03-31T19:17:34.270Z,0.10
2023-03-31T19:20:01.035Z,0.70
2023-03-31T19:22:29.068Z,1.08
2023-03-31T19:24:55.767Z,1.35
2023-03-31T19:27:22.463Z,1.45
2023-03-31T19:29:49.188Z,0.30
2023-03-31T19:32:16.394Z,0.45
2023-03-31T19:34:43.280Z,2.05
2023-03-31T19:37:10.392Z,0.93
2023-03-31T19:39:38.492Z,2.22
2023-03-31T19:42:05.252Z,0.40
2023-03-31T19:44:31.930Z,1.55
2023-03-31T19:46:58.761Z,0.30
2023-03-31T19:49:25.584Z,2.03
2023-03-31T19:51:52.411Z,0.32
2023-03-31T19:54:19.103Z,2.22
2023-03-31T19:56:47.184Z,0.30
2023-03-31T19:59:13.976Z,1.63
2023-03-31T20:01:40.780Z,1.25
2023-03-31T20:04:07.596Z,0.57
2023-03-31T20:06:35.140Z,0.60
2023-03-31T20:09:02.532Z,0.43
2023-03-31T20:11:30.589Z,0.13
2023-03-31T20:13:59.623Z,0.20
2023-03-31T20:16:28.035Z,0.10
2023-03-31T20:18:56.758Z,1.23
2023-03-31T20:21:25.691Z,2.55
2023-03-31T20:23:52.446Z,3.58
2023-03-31T20:26:20.878Z,2.53
2023-03-31T20:28:48.763Z,0.20
2023-03-31T20:31:19.474Z,2.83
2023-03-31T20:33:47.039Z,0.63
2023-03-31T20:36:16.205Z,1.05
2023-03-31T20:38:45.590Z,0.43
2023-03-31T20:41:13.359Z,2.28
2023-03-31T20:43:40.232Z,0.60
2023-03-31T20:46:08.777Z,5.55
2023-03-31T20:48:38.911Z,1.95
2023-03-31T20:51:06.500Z,1.15
2023-03-31T20:53:33.289Z,1.27
2023-03-31T20:55:59.972Z,5.32
2023-03-31T20:58:26.702Z,1.17
2023-03-31T21:00:57.074Z,0.35
2023-03-31T21:03:23.910Z,1.27
2023-03-31T21:05:51.971Z,0.60
2023-03-31T21:08:18.715Z,1.65
2023-03-31T21:10:46.375Z,0.95
2023-03-31T21:13:15.291Z,0.77
2023-03-31T21:15:46.215Z,1.92
2023-03-31T21:18:12.927Z,0.98
2023-03-31T21:20:39.629Z,0.88
2023-03-31T21:23:07.651Z,3.20
2023-03-31T21:25:34.423Z,1.83
2023-03-31T21:28:01.086Z,3.67
2023-03-31T21:30:27.845Z,1.48
2023-03-31T21:32:54.645Z,1.25
2023-03-31T21:35:21.395Z,1.65
2023-03-31T21:37:48.092Z,0.30
2023-03-31T21:40:16.390Z,3.55
2023-03-31T21:42:43.070Z,0.98
2023-03-31T21:45:10.625Z,0.88
2023-03-31T21:47:37.368Z,1.05
2023-03-31T21:50:04.876Z,1.42
2023-03-31T21:52:31.584Z,0.77
2023-03-31T21:54:58.256Z,1.35
2023-03-31T21:57:26.407Z,0.50
2023-03-31T21:59:53.109Z,2.25
2023-03-31T22:02:19.846Z,0.68
2023-03-31T22:04:46.579Z,0.28
2023-03-31T22:07:13.310Z,0.20
2023-03-31T22:09:40.078Z,0.30
2023-03-31T22:12:06.957Z,0.73
2023-03-31T22:14:36.481Z,1.83
2023-03-31T22:17:03.313Z,1.23
2023-03-31T22:19:30.019Z,3.00
2023-03-31T22:21:56.737Z,2.20
2023-03-31T22:24:23.440Z,2.38
2023-03-31T22:26:50.128Z,2.95
2023-03-31T22:29:16.887Z,1.63
2023-03-31T22:31:45.127Z,0.17
2023-03-31T22:34:20.977Z,1.83
2023-03-31T22:36:48.059Z,4.65
2023-03-31T22:39:14.973Z,1.20
2023-03-31T22:41:41.800Z,0.85
2023-03-31T22:44:08.967Z,0.38
2023-03-31T22:46:36.812Z,2.15
2023-03-31T22:49:05.138Z,0.68
2023-03-31T22:51:31.956Z,1.83
2023-03-31T22:53:59.317Z,0.52
2023-03-31T22:56:26.553Z,0.30
2023-03-31T22:58:56.178Z,0.00
2023-03-31T23:01:23.001Z,0.17
2023-03-31T23:03:50.124Z,0.32
2023-03-31T23:06:18.260Z,0.30
2023-03-31T23:08:44.965Z,0.05
2023-03-31T23:11:13.264Z,0.88
2023-03-31T23:13:40.155Z,0.57
2023-03-31T23:16:08.536Z,1.00
2023-03-31T23:18:35.775Z,3.20
2023-03-31T23:21:04.554Z,1.00
2023-03-31T23:23:32.701Z,0.52
2023-03-31T23:26:01.002Z,0.60
2023-03-31T23:28:27.739Z,3.38
2023-03-31T23:30:55.551Z,0.35
2023-03-31T23:33:22.519Z,0.68
2023-03-31T23:35:49.326Z,1.27
2023-03-31T23:38:16.102Z,0.70
2023-03-31T23:40:44.245Z,0.63
2023-03-31T23:43:11.026Z,0.10
2023-03-31T23:45:37.764Z,0.30
2023-03-31T23:48:05.116Z,0.98
2023-03-31T23:50:31.958Z,0.68
2023-03-31T23:52:58.708Z,0.22
2023-03-31T23:55:25.580Z,0.15
2023-03-31T23:57:53.906Z,1.42
